createdAt,value
2019-05-21T00:00:09.524Z,3.45
2019-05-21T00:02:39.562Z,3.85
2019-05-21T00:05:09.843Z,3.72
2019-05-21T00:07:39.942Z,3.77
2019-05-21T00:10:10.350Z,3.47
2019-05-21T00:12:40.452Z,3.20
2019-05-21T00:15:11.030Z,3.45
2019-05-21T00:17:40.890Z,3.37
2019-05-21T00:20:12.699Z,3.83
2019-05-21T00:22:42.870Z,4.08
2019-05-21T00:25:16.911Z,3.08
2019-05-21T00:27:44.935Z,3.80
2019-05-21T00:30:51.023Z,3.67
2019-05-21T00:33:56.967Z,3.87
2019-05-21T00:37:04.088Z,3.15
2019-05-21T00:40:09.793Z,4.53
2019-05-21T00:42:42.907Z,3.75
2019-05-21T00:45:13.191Z,4.08
2019-05-21T00:47:43.184Z,3.80
2019-05-21T00:50:13.387Z,3.98
2019-05-21T00:52:43.320Z,5.53
2019-05-21T00:55:13.423Z,4.10
2019-05-21T00:57:46.802Z,4.22
2019-05-21T01:00:17.664Z,4.20
2019-05-21T01:02:47.731Z,3.90
2019-05-21T01:05:17.895Z,3.85
2019-05-21T01:07:47.823Z,4.85
2019-05-21T01:10:17.923Z,4.20
2019-05-21T01:12:47.923Z,4.80
2019-05-21T01:15:18.023Z,4.90
2019-05-21T01:17:49.199Z,5.25
2019-05-21T01:20:19.244Z,4.75
2019-05-21T01:22:49.211Z,5.33
2019-05-21T01:25:19.243Z,5.12
2019-05-21T01:27:49.274Z,5.25
2019-05-21T01:30:19.344Z,5.62
2019-05-21T01:32:49.319Z,6.20
2019-05-21T01:35:19.243Z,5.85
2019-05-21T01:37:49.291Z,5.72
2019-05-21T01:40:19.287Z,5.97
2019-05-21T01:42:49.248Z,5.75
2019-05-21T01:45:19.275Z,5.72
2019-05-21T01:47:49.309Z,5.42
2019-05-21T01:50:19.274Z,6.10
2019-05-21T01:52:49.202Z,6.20
2019-05-21T01:55:19.318Z,6.92
2019-05-21T01:57:53.928Z,6.67
2019-05-21T02:00:24.040Z,7.05
2019-05-21T02:02:54.002Z,6.17
2019-05-21T02:05:32.769Z,6.70
2019-05-21T02:07:55.897Z,7.08
2019-05-21T02:10:25.883Z,7.67
2019-05-21T02:12:55.775Z,6.85
2019-05-21T02:15:25.850Z,8.15
2019-05-21T02:17:55.881Z,7.25
2019-05-21T02:20:25.947Z,7.10
2019-05-21T02:22:56.062Z,7.92
2019-05-21T02:25:26.127Z,7.28
2019-05-21T02:27:56.214Z,7.30
2019-05-21T02:30:26.228Z,6.75
2019-05-21T02:32:56.348Z,7.65
2019-05-21T02:35:26.440Z,8.35
2019-05-21T02:37:56.520Z,7.78
2019-05-21T02:40:26.657Z,7.83
2019-05-21T02:42:56.731Z,7.60
2019-05-21T02:45:26.916Z,7.72
2019-05-21T02:47:56.996Z,7.37
2019-05-21T02:50:27.027Z,9.00
2019-05-21T02:52:57.138Z,7.90
2019-05-21T02:55:27.104Z,7.90
2019-05-21T02:57:57.040Z,7.10
2019-05-21T03:00:38.378Z,9.03
2019-05-21T03:03:07.842Z,7.62
2019-05-21T03:05:37.951Z,8.25
2019-05-21T03:08:07.984Z,8.35
2019-05-21T03:10:38.080Z,7.53
2019-05-21T03:13:08.154Z,7.83
2019-05-21T03:15:38.268Z,8.38
2019-05-21T03:18:08.197Z,8.05
2019-05-21T03:20:38.315Z,8.30
2019-05-21T03:23:08.348Z,7.95
2019-05-21T03:25:38.354Z,8.50
2019-05-21T03:28:08.456Z,7.95
2019-05-21T03:30:38.477Z,8.38
2019-05-21T03:33:08.500Z,9.68
2019-05-21T03:35:38.578Z,9.40
2019-05-21T03:38:08.611Z,7.62
2019-05-21T03:40:39.619Z,7.95
2019-05-21T03:43:09.551Z,7.05
2019-05-21T03:45:39.523Z,8.30
2019-05-21T03:48:09.647Z,7.78
2019-05-21T03:50:39.765Z,8.53
2019-05-21T03:53:09.887Z,9.30
2019-05-21T03:55:40.000Z,8.23
2019-05-21T03:58:10.035Z,8.23
2019-05-21T04:00:40.144Z,8.40
2019-05-21T04:03:10.260Z,8.78
2019-05-21T04:05:40.334Z,8.43
2019-05-21T04:08:10.390Z,7.45
2019-05-21T04:10:40.426Z,7.60
2019-05-21T04:13:10.460Z,8.13
2019-05-21T04:15:51.488Z,7.47
2019-05-21T04:18:33.179Z,7.58
2019-05-21T04:21:03.278Z,7.53
2019-05-21T04:23:33.399Z,7.75
2019-05-21T04:26:03.500Z,7.28
2019-05-21T04:28:33.528Z,7.67
2019-05-21T04:31:03.571Z,7.50
2019-05-21T04:33:33.610Z,7.65
2019-05-21T04:36:03.683Z,7.80
2019-05-21T04:38:33.736Z,7.33
2019-05-21T04:41:03.759Z,6.97
2019-05-21T04:43:33.734Z,8.63
2019-05-21T04:46:04.734Z,7.22
2019-05-21T04:48:35.356Z,7.12
2019-05-21T04:51:05.460Z,7.92
2019-05-21T04:53:35.441Z,8.83
2019-05-21T04:56:05.554Z,7.05
2019-05-21T04:58:35.600Z,7.78
2019-05-21T05:01:05.712Z,7.35
2019-05-21T05:03:36.381Z,7.42
2019-05-21T05:06:06.488Z,7.92
2019-05-21T05:08:36.659Z,8.08
2019-05-21T05:11:07.267Z,7.42
2019-05-21T05:13:37.324Z,8.08
2019-05-21T05:16:07.380Z,7.83
2019-05-21T05:18:37.387Z,9.35
2019-05-21T05:21:07.356Z,8.73
2019-05-21T05:23:37.463Z,9.35
2019-05-21T05:26:07.503Z,9.08
2019-05-21T05:28:37.607Z,8.55
2019-05-21T05:31:07.696Z,8.88
2019-05-21T05:33:37.723Z,8.23
2019-05-21T05:36:07.799Z,8.68
2019-05-21T05:38:37.907Z,10.05
2019-05-21T05:41:07.985Z,9.58
2019-05-21T05:43:38.020Z,9.30
2019-05-21T05:46:08.028Z,10.28
2019-05-21T05:48:39.801Z,9.75
2019-05-21T05:51:09.981Z,8.90
2019-05-21T05:53:58.212Z,10.13
2019-05-21T05:56:29.361Z,10.88
2019-05-21T05:58:59.620Z,9.50
2019-05-21T06:01:31.334Z,9.58
2019-05-21T06:04:01.524Z,11.55
2019-05-21T06:06:31.626Z,10.00
2019-05-21T06:09:02.358Z,10.65
2019-05-21T06:11:32.727Z,10.70
2019-05-21T06:14:02.899Z,11.75
2019-05-21T06:16:32.832Z,11.08
2019-05-21T06:19:03.018Z,10.55
2019-05-21T06:21:33.023Z,11.08
2019-05-21T06:24:03.072Z,10.50
2019-05-21T06:26:33.155Z,10.58
2019-05-21T06:29:03.290Z,10.20
2019-05-21T06:31:33.235Z,11.80
2019-05-21T06:34:03.293Z,10.93
2019-05-21T06:36:33.236Z,11.08
2019-05-21T06:39:05.133Z,10.30
2019-05-21T06:41:35.283Z,11.65
2019-05-21T06:44:05.498Z,11.50
2019-05-21T06:46:35.652Z,11.12
2019-05-21T06:49:05.726Z,10.48
2019-05-21T06:51:35.872Z,10.63
2019-05-21T06:54:05.936Z,11.38
2019-05-21T06:56:36.046Z,11.45
2019-05-21T06:59:06.132Z,11.73
2019-05-21T07:01:36.257Z,10.75
2019-05-21T07:04:06.383Z,11.38
2019-05-21T07:06:36.468Z,11.90
2019-05-21T07:09:07.108Z,12.68
2019-05-21T07:11:37.052Z,13.08
2019-05-21T07:14:07.164Z,12.88
2019-05-21T07:16:38.053Z,13.03
2019-05-21T07:19:08.133Z,12.00
2019-05-21T07:21:38.236Z,13.70
2019-05-21T07:24:08.315Z,12.28
2019-05-21T07:26:38.379Z,12.20
2019-05-21T07:29:08.468Z,11.55
2019-05-21T07:31:38.670Z,13.65
2019-05-21T07:34:08.666Z,11.95
2019-05-21T07:36:38.643Z,13.38
2019-05-21T07:39:08.754Z,13.43
2019-05-21T07:41:38.807Z,13.60
2019-05-21T07:44:08.852Z,12.88
2019-05-21T07:46:39.897Z,13.98
2019-05-21T07:49:10.107Z,13.10
2019-05-21T07:51:40.102Z,13.72
2019-05-21T07:54:10.162Z,12.58
2019-05-21T07:56:40.256Z,14.23
2019-05-21T07:59:10.357Z,12.65
2019-05-21T08:01:40.329Z,14.65
2019-05-21T08:04:10.347Z,14.55
2019-05-21T08:06:40.467Z,15.03
2019-05-21T08:09:14.109Z,15.53
2019-05-21T08:11:42.235Z,11.25
2019-05-21T08:14:12.388Z,15.70
2019-05-21T08:16:42.556Z,14.80
2019-05-21T08:19:12.755Z,13.05
2019-05-21T08:21:42.879Z,10.43
2019-05-21T08:24:12.996Z,13.53
2019-05-21T08:26:43.103Z,9.45
2019-05-21T08:29:13.208Z,8.50
2019-05-21T08:31:43.216Z,9.75
2019-05-21T08:34:13.191Z,12.60
2019-05-21T08:36:44.238Z,10.88
2019-05-21T08:39:27.757Z,11.43
2019-05-21T08:41:45.859Z,8.68
2019-05-21T08:44:15.898Z,8.45
2019-05-21T08:46:45.980Z,6.42
2019-05-21T08:49:16.087Z,7.28
2019-05-21T08:51:46.134Z,7.00
2019-05-21T08:54:17.839Z,7.42
2019-05-21T08:56:47.912Z,7.87
2019-05-21T08:59:17.843Z,7.62
2019-05-21T09:01:47.960Z,7.80
2019-05-21T09:04:18.276Z,8.43
2019-05-21T09:06:48.527Z,7.45
2019-05-21T09:09:18.618Z,6.70
2019-05-21T09:11:48.651Z,7.22
2019-05-21T09:14:24.178Z,6.03
2019-05-21T09:16:54.130Z,6.22
2019-05-21T09:19:25.639Z,6.85
2019-05-21T09:21:59.879Z,6.80
2019-05-21T09:24:29.944Z,7.47
2019-05-21T09:27:00.095Z,7.22
2019-05-21T09:29:34.895Z,7.12
2019-05-21T09:32:06.716Z,6.72
2019-05-21T09:34:48.011Z,8.35
2019-05-21T09:37:19.238Z,8.30
2019-05-21T09:39:40.264Z,7.10
2019-05-21T09:42:10.368Z,7.97
2019-05-21T09:44:40.440Z,8.40
2019-05-21T09:47:10.563Z,8.70
2019-05-21T09:49:43.773Z,8.93
2019-05-21T09:52:13.819Z,9.25
2019-05-21T09:54:44.167Z,10.35
2019-05-21T09:57:15.993Z,7.92
2019-05-21T09:59:47.704Z,8.78
2019-05-21T10:02:25.404Z,8.68
2019-05-21T10:04:55.431Z,8.73
2019-05-21T10:07:39.270Z,9.43
2019-05-21T10:09:57.175Z,9.90
2019-05-21T10:12:27.155Z,9.03
2019-05-21T10:14:57.183Z,9.60
2019-05-21T10:17:27.160Z,10.08
2019-05-21T10:19:58.997Z,10.28
2019-05-21T10:22:29.160Z,10.75
2019-05-21T10:24:59.290Z,10.35
2019-05-21T10:27:29.436Z,9.15
2019-05-21T10:29:59.541Z,9.35
2019-05-21T10:32:29.553Z,9.95
2019-05-21T10:34:59.610Z,10.10
2019-05-21T10:37:30.059Z,10.90
2019-05-21T10:40:00.102Z,10.77
2019-05-21T10:42:31.284Z,10.80
2019-05-21T10:45:01.413Z,11.57
2019-05-21T10:47:32.695Z,12.65
2019-05-21T10:50:02.778Z,12.58
2019-05-21T10:52:32.964Z,12.33
2019-05-21T10:55:03.475Z,11.20
2019-05-21T10:57:54.098Z,11.60
2019-05-21T11:00:33.570Z,10.70
2019-05-21T11:03:17.082Z,9.25
2019-05-21T11:06:09.708Z,11.88
2019-05-21T11:08:42.744Z,12.18
2019-05-21T11:11:14.562Z,12.40
2019-05-21T11:13:44.678Z,8.93
2019-05-21T11:16:21.594Z,9.35
2019-05-21T11:18:52.525Z,8.75
2019-05-21T11:21:24.896Z,8.55
2019-05-21T11:26:37.934Z,8.83
2019-05-21T11:29:06.542Z,6.92
2019-05-21T11:31:38.395Z,7.53
2019-05-21T11:34:13.640Z,7.70
2019-05-21T11:36:46.759Z,7.78
2019-05-21T11:39:16.867Z,8.33
2019-05-21T11:41:51.524Z,9.23
2019-05-21T11:44:30.107Z,8.13
2019-05-21T11:47:02.433Z,8.33
2019-05-21T11:49:32.469Z,8.30
2019-05-21T11:52:10.620Z,9.20
2019-05-21T11:57:46.216Z,9.45
2019-05-21T12:00:21.446Z,9.13
2019-05-21T12:02:50.647Z,9.88
2019-05-21T12:05:20.673Z,9.65
2019-05-21T12:07:50.784Z,10.32
2019-05-21T12:10:21.763Z,8.70
2019-05-21T12:12:51.734Z,9.85
2019-05-21T12:15:21.943Z,10.03
2019-05-21T12:17:51.885Z,10.38
2019-05-21T12:20:35.472Z,10.60
2019-05-21T12:22:53.733Z,10.00
2019-05-21T12:25:23.775Z,10.58
2019-05-21T12:27:53.726Z,9.80
2019-05-21T12:30:23.932Z,11.38
2019-05-21T12:32:53.872Z,10.15
2019-05-21T12:35:23.945Z,10.38
2019-05-21T12:37:54.027Z,11.30
2019-05-21T12:40:24.440Z,11.40
2019-05-21T12:42:54.479Z,11.38
2019-05-21T12:45:24.562Z,12.40
2019-05-21T12:47:54.696Z,11.40
2019-05-21T12:50:25.515Z,11.12
2019-05-21T12:52:55.644Z,11.38
2019-05-21T12:55:25.719Z,12.43
2019-05-21T12:58:00.129Z,11.25
2019-05-21T13:00:48.066Z,12.93
2019-05-21T13:03:40.196Z,12.18
2019-05-21T13:09:50.447Z,12.43
2019-05-21T13:12:26.536Z,13.45
2019-05-21T13:14:56.832Z,12.18
2019-05-21T13:17:26.919Z,11.83
2019-05-21T13:20:12.763Z,13.80
2019-05-21T13:22:43.180Z,13.03
2019-05-21T13:25:20.757Z,12.85
2019-05-21T13:28:09.641Z,12.40
2019-05-21T13:30:40.080Z,11.93
2019-05-21T13:33:10.215Z,11.75
2019-05-21T13:35:40.444Z,12.30
2019-05-21T13:38:13.445Z,12.47
2019-05-21T13:40:42.288Z,10.95
2019-05-21T13:43:12.760Z,10.23
2019-05-21T13:45:42.918Z,10.95
2019-05-21T13:48:13.109Z,11.10
2019-05-21T13:50:44.189Z,11.83
2019-05-21T13:55:44.296Z,12.60
2019-05-21T13:58:14.501Z,11.18
2019-05-21T14:00:50.197Z,9.90
2019-05-21T14:03:25.943Z,9.95
2019-05-21T14:05:59.548Z,10.03
2019-05-21T14:08:36.420Z,10.78
2019-05-21T14:11:15.934Z,11.20
2019-05-21T14:13:46.755Z,9.90
2019-05-21T14:16:23.971Z,11.28
2019-05-21T14:18:55.275Z,11.90
2019-05-21T14:23:55.430Z,11.30
2019-05-21T14:29:49.427Z,9.75
2019-05-21T14:32:45.894Z,12.18
2019-05-21T14:35:15.296Z,10.75
2019-05-21T14:38:06.445Z,9.10
2019-05-21T14:40:52.719Z,9.35
2019-05-21T14:43:28.324Z,9.33
2019-05-21T14:46:03.640Z,12.95
2019-05-21T14:48:34.017Z,13.88
2019-05-21T14:51:07.065Z,14.30
2019-05-21T14:53:37.207Z,15.55
2019-05-21T14:56:07.817Z,15.85
2019-05-21T14:58:37.820Z,15.88
2019-05-21T15:01:07.899Z,15.10
2019-05-21T15:03:37.876Z,16.45
2019-05-21T15:06:07.879Z,16.97
2019-05-21T15:08:37.856Z,17.60
2019-05-21T15:11:07.916Z,18.90
2019-05-21T15:13:38.102Z,18.27
2019-05-21T15:16:08.222Z,18.40
2019-05-21T15:18:38.320Z,17.40
2019-05-21T15:21:10.651Z,16.82
2019-05-21T15:23:41.648Z,18.55
2019-05-21T15:26:12.397Z,18.65
2019-05-21T15:28:42.450Z,17.87
2019-05-21T15:31:12.462Z,15.45
2019-05-21T15:33:43.681Z,17.12
2019-05-21T15:36:13.760Z,17.75
2019-05-21T15:38:49.906Z,15.58
2019-05-21T15:41:15.544Z,15.98
2019-05-21T15:43:45.577Z,14.95
2019-05-21T15:46:15.689Z,16.87
2019-05-21T15:48:47.366Z,15.72
2019-05-21T15:51:18.843Z,15.30
2019-05-21T15:53:48.794Z,15.25
2019-05-21T15:56:18.929Z,15.63
2019-05-21T15:58:49.007Z,16.05
2019-05-21T16:01:19.077Z,16.23
2019-05-21T16:03:49.120Z,16.32
2019-05-21T16:06:19.206Z,17.92
2019-05-21T16:08:49.312Z,16.87
2019-05-21T16:11:28.565Z,16.50
2019-05-21T16:13:51.271Z,16.27
2019-05-21T16:16:21.287Z,16.75
2019-05-21T16:18:51.363Z,17.20
2019-05-21T16:21:21.347Z,16.07
2019-05-21T16:23:51.332Z,15.75
2019-05-21T16:26:23.380Z,17.00
2019-05-21T16:28:53.156Z,17.25
2019-05-21T16:31:23.285Z,19.30
2019-05-21T16:33:53.305Z,16.93
2019-05-21T16:36:23.492Z,18.02
2019-05-21T16:38:53.537Z,17.73
2019-05-21T16:41:24.820Z,17.32
2019-05-21T16:43:55.010Z,15.40
2019-05-21T16:46:25.133Z,15.45
2019-05-21T16:48:55.319Z,16.80
2019-05-21T16:51:25.442Z,17.27
2019-05-21T16:53:55.550Z,15.65
2019-05-21T16:56:25.667Z,17.42
2019-05-21T16:58:55.974Z,16.73
2019-05-21T17:03:59.911Z,16.60
2019-05-21T17:06:32.095Z,17.30
2019-05-21T17:09:01.992Z,15.18
2019-05-21T17:11:33.376Z,14.78
2019-05-21T17:14:06.225Z,14.25
2019-05-21T17:16:36.483Z,16.12
2019-05-21T17:19:06.705Z,15.55
2019-05-21T17:21:37.184Z,15.48
2019-05-21T17:24:07.968Z,18.10
2019-05-21T17:26:38.497Z,17.50
2019-05-21T17:29:08.672Z,15.80
2019-05-21T17:31:38.789Z,15.05
2019-05-21T17:34:13.557Z,16.30
2019-05-21T17:36:43.944Z,16.17
2019-05-21T17:39:13.972Z,17.12
2019-05-21T17:41:44.220Z,15.80
2019-05-21T17:44:14.243Z,26.10
2019-05-21T17:46:44.470Z,18.77
2019-05-21T17:49:14.628Z,14.95
2019-05-21T17:51:45.856Z,14.10
2019-05-21T17:54:16.361Z,14.55
2019-05-21T17:56:46.414Z,15.00
2019-05-21T17:59:20.483Z,15.63
2019-05-21T18:01:52.755Z,15.58
2019-05-21T18:04:22.840Z,15.20
2019-05-21T18:06:53.256Z,15.32
2019-05-21T18:09:23.852Z,15.70
2019-05-21T18:11:54.377Z,16.02
2019-05-21T18:14:24.979Z,15.90
2019-05-21T18:16:55.080Z,15.08
2019-05-21T18:19:25.441Z,14.83
2019-05-21T18:21:55.563Z,14.53
2019-05-21T18:24:27.035Z,16.52
2019-05-21T18:26:57.099Z,14.87
2019-05-21T18:29:27.254Z,14.90
2019-05-21T18:31:57.300Z,14.78
2019-05-21T18:34:27.511Z,15.70
2019-05-21T18:36:57.708Z,15.53
2019-05-21T18:39:28.164Z,15.23
2019-05-21T18:41:58.443Z,15.35
2019-05-21T18:44:28.634Z,16.50
2019-05-21T18:46:58.672Z,16.12
2019-05-21T18:49:28.894Z,15.60
2019-05-21T18:51:58.914Z,17.05
2019-05-21T18:54:29.062Z,16.40
2019-05-21T18:56:59.039Z,16.95
2019-05-21T18:59:29.252Z,19.05
2019-05-21T19:01:59.327Z,18.17
2019-05-21T19:04:29.448Z,17.82
2019-05-21T19:06:59.682Z,18.30
2019-05-21T19:09:29.864Z,18.07
2019-05-21T19:12:00.104Z,18.67
2019-05-21T19:14:30.172Z,17.92
2019-05-21T19:17:00.390Z,18.27
2019-05-21T19:19:30.533Z,20.57
2019-05-21T19:22:00.699Z,19.30
2019-05-21T19:24:31.021Z,20.43
2019-05-21T19:27:01.126Z,20.25
2019-05-21T19:29:32.350Z,19.07
2019-05-21T19:32:02.406Z,20.90
2019-05-21T19:34:32.495Z,18.12
2019-05-21T19:37:02.506Z,20.57
2019-05-21T19:39:32.770Z,20.15
2019-05-21T19:42:02.915Z,20.55
2019-05-21T19:44:33.234Z,20.02
2019-05-21T19:47:03.401Z,21.12
2019-05-21T19:49:33.518Z,22.15
2019-05-21T19:52:03.764Z,23.45
2019-05-21T19:54:33.898Z,22.93
2019-05-21T19:57:04.523Z,23.07
2019-05-21T19:59:34.675Z,22.32
2019-05-21T20:02:06.591Z,23.70
2019-05-21T20:04:36.927Z,23.30
2019-05-21T20:07:07.672Z,24.85
2019-05-21T20:09:37.954Z,23.40
2019-05-21T20:12:09.742Z,23.62
2019-05-21T20:14:40.530Z,23.30
2019-05-21T20:17:11.164Z,22.98
2019-05-21T20:19:41.714Z,23.85
2019-05-21T20:22:12.498Z,23.83
2019-05-21T20:24:42.751Z,25.30
2019-05-21T20:27:13.515Z,24.25
2019-05-21T20:29:43.736Z,24.07
2019-05-21T20:32:14.247Z,23.70
2019-05-21T20:34:44.810Z,27.83
2019-05-21T20:37:16.504Z,25.05
2019-05-21T20:39:47.802Z,23.75
2019-05-21T20:42:20.094Z,24.87
2019-05-21T20:44:50.430Z,24.98
2019-05-21T20:47:20.650Z,25.10
2019-05-21T20:49:51.092Z,25.00
2019-05-21T20:52:21.310Z,25.45
2019-05-21T20:54:53.046Z,25.05
2019-05-21T20:57:44.949Z,25.68
2019-05-21T21:00:18.034Z,24.82
2019-05-21T21:02:48.523Z,25.95
2019-05-21T21:05:19.002Z,25.53
2019-05-21T21:07:50.047Z,25.80
2019-05-21T21:10:20.804Z,24.05
2019-05-21T21:12:51.325Z,26.55
2019-05-21T21:17:51.996Z,26.45
2019-05-21T21:20:22.102Z,25.13
2019-05-21T21:22:52.196Z,27.35
2019-05-21T21:25:22.649Z,26.80
2019-05-21T21:27:52.943Z,24.20
2019-05-21T21:30:23.130Z,28.55
2019-05-21T21:32:53.646Z,26.17
2019-05-21T21:35:24.223Z,28.57
2019-05-21T21:37:54.239Z,28.95
2019-05-21T21:40:24.990Z,27.55
2019-05-21T21:42:55.435Z,27.73
2019-05-21T21:45:25.552Z,28.40
2019-05-21T21:47:56.709Z,28.30
2019-05-21T21:50:28.395Z,27.02
2019-05-21T21:52:59.143Z,28.27
2019-05-21T21:55:31.931Z,30.80
2019-05-21T21:58:00.836Z,30.57
2019-05-21T22:01:08.355Z,30.88
2019-05-21T22:03:38.880Z,30.52
2019-05-21T22:06:10.248Z,29.40
2019-05-21T22:11:09.407Z,30.48
2019-05-21T22:13:39.527Z,30.25
2019-05-21T22:16:09.847Z,31.12
2019-05-21T22:18:42.117Z,29.98
2019-05-21T22:21:12.497Z,30.50
2019-05-21T22:23:43.124Z,29.87
2019-05-21T22:26:13.848Z,33.30
2019-05-21T22:28:43.914Z,31.50
2019-05-21T22:31:14.087Z,32.00
2019-05-21T22:33:44.416Z,30.68
2019-05-21T22:36:14.695Z,30.10
2019-05-21T22:38:44.784Z,31.07
2019-05-21T22:41:14.840Z,31.50
2019-05-21T22:43:45.215Z,29.40
2019-05-21T22:46:15.307Z,33.30
2019-05-21T22:48:45.464Z,29.35
2019-05-21T22:51:15.589Z,29.95
2019-05-21T22:53:45.774Z,28.80
2019-05-21T22:56:16.005Z,29.63
2019-05-21T22:58:46.020Z,30.77
2019-05-21T23:01:16.515Z,27.58
2019-05-21T23:03:46.795Z,29.63
2019-05-21T23:06:17.055Z,31.33
2019-05-21T23:08:47.407Z,28.57
2019-05-21T23:11:17.591Z,26.70
2019-05-21T23:13:47.679Z,29.67
2019-05-21T23:16:17.891Z,29.90
2019-05-21T23:19:06.773Z,30.10
2019-05-21T23:21:51.799Z,28.77
2019-05-21T23:26:53.771Z,29.87
2019-05-21T23:29:24.130Z,29.70
2019-05-21T23:31:54.423Z,26.57
2019-05-21T23:34:24.611Z,26.23
2019-05-21T23:36:54.830Z,27.35
2019-05-21T23:39:27.432Z,29.57
2019-05-21T23:41:57.614Z,32.90
2019-05-21T23:44:27.668Z,28.62
2019-05-21T23:46:57.676Z,33.78
2019-05-21T23:49:27.787Z,31.05
2019-05-21T23:51:57.872Z,31.17
2019-05-21T23:54:27.922Z,27.25
2019-05-21T23:56:59.411Z,29.50
2019-05-21T23:59:29.769Z,32.90
